Aviation Digital Data Service (ADDS)

Output produced by METARs form (2155 UTC 01 February 2023)
found at http://www.aviationweather.gov/metar/data/
 
KCHS 012056Z 33009KT 10SM BKN040 BKN050 BKN250 26/14 A3011 RMK AO2 SLP196 T02560144 55002
KCHS 011729Z 0118/0218 30007KT P6SM FEW025 SCT040 
     FM020100 03006KT P6SM OVC007 
     FM020500 06005KT 4SM BR SCT002 OVC005 
     FM021400 02007KT P6SM SCT004 OVC008